createdAt,value
2023-01-30T00:01:06.152Z,17.67
2023-01-30T00:03:34.514Z,15.60
2023-01-30T00:06:01.905Z,16.10
2023-01-30T00:08:30.125Z,18.38
2023-01-30T00:10:57.392Z,15.35
2023-01-30T00:13:25.938Z,17.13
2023-01-30T00:15:54.080Z,18.10
2023-01-30T00:18:22.716Z,15.30
2023-01-30T00:20:55.742Z,27.75
2023-01-30T00:23:25.252Z,33.42
2023-01-30T00:25:52.772Z,32.55
2023-01-30T00:28:20.646Z,40.30
2023-01-30T00:30:55.927Z,28.30
2023-01-30T00:33:25.773Z,27.70
2023-01-30T00:35:54.940Z,23.55
2023-01-30T00:38:24.199Z,28.35
2023-01-30T00:40:51.956Z,22.20
2023-01-30T00:43:40.285Z,24.70
2023-01-30T00:46:44.879Z,29.92
2023-01-30T00:49:12.737Z,21.67
2023-01-30T00:51:41.478Z,25.73
2023-01-30T00:54:08.920Z,19.92
2023-01-30T00:56:36.673Z,24.67
2023-01-30T00:59:04.753Z,26.98
2023-01-30T01:01:33.178Z,24.38
2023-01-30T01:04:01.029Z,19.08
2023-01-30T01:06:28.451Z,17.10
2023-01-30T01:08:56.150Z,19.13
2023-01-30T01:11:29.755Z,19.10
2023-01-30T01:14:00.091Z,19.63
2023-01-30T01:16:30.825Z,20.88
2023-01-30T01:19:00.304Z,20.52
2023-01-30T01:21:28.018Z,21.45
2023-01-30T01:23:58.839Z,23.95
2023-01-30T01:26:27.083Z,21.40
2023-01-30T01:28:59.237Z,20.90
2023-01-30T01:31:27.054Z,23.70
2023-01-30T01:33:57.443Z,35.35
2023-01-30T01:36:53.348Z,22.23
2023-01-30T01:39:16.956Z,15.25
2023-01-30T01:41:44.203Z,23.25
2023-01-30T01:44:14.128Z,30.52
2023-01-30T01:46:56.061Z,29.95
2023-01-30T01:49:28.313Z,32.90
2023-01-30T01:52:07.872Z,21.48
2023-01-30T01:54:49.739Z,21.00
2023-01-30T01:57:30.174Z,22.98
2023-01-30T02:00:06.832Z,20.17
2023-01-30T02:02:44.358Z,29.83
2023-01-30T02:05:14.228Z,21.40
2023-01-30T02:07:54.789Z,29.43
2023-01-30T02:10:49.118Z,23.02
2023-01-30T02:13:17.298Z,24.52
2023-01-30T02:15:47.987Z,28.60
2023-01-30T02:20:51.437Z,19.17
2023-01-30T02:23:36.431Z,17.92
2023-01-30T02:26:26.409Z,16.45
2023-01-30T02:29:19.981Z,19.30
2023-01-30T02:32:07.030Z,18.95
2023-01-30T02:34:47.429Z,25.13
2023-01-30T02:37:21.126Z,26.90
2023-01-30T02:40:29.860Z,18.17
2023-01-30T02:43:16.901Z,26.42
2023-01-30T02:46:10.053Z,20.17
2023-01-30T02:48:49.425Z,19.20
2023-01-30T02:51:40.072Z,20.00
2023-01-30T02:54:11.010Z,19.23
2023-01-30T02:57:03.333Z,18.85
2023-01-30T02:59:39.137Z,18.10
2023-01-30T03:02:26.175Z,17.95
2023-01-30T03:05:26.804Z,26.27
2023-01-30T03:08:08.037Z,27.00
2023-01-30T03:11:06.447Z,23.85
2023-01-30T03:13:55.707Z,20.70
2023-01-30T03:16:32.587Z,19.15
2023-01-30T03:19:06.060Z,21.50
2023-01-30T03:21:33.954Z,24.35
2023-01-30T03:24:01.830Z,24.23
2023-01-30T03:26:36.820Z,26.67
2023-01-30T03:29:05.428Z,16.98
2023-01-30T03:31:33.328Z,26.15
2023-01-30T03:34:02.137Z,16.85
2023-01-30T03:36:31.470Z,23.25
2023-01-30T03:38:59.499Z,24.20
2023-01-30T03:41:26.865Z,19.55
2023-01-30T03:43:54.570Z,26.23
2023-01-30T03:46:22.231Z,78.13
2023-01-30T03:48:50.402Z,270.02
2023-01-30T03:51:18.082Z,243.95
2023-01-30T03:53:46.419Z,135.65
2023-01-30T03:56:13.992Z,70.07
2023-01-30T03:58:41.561Z,79.68
2023-01-30T04:01:21.496Z,59.38
2023-01-30T04:03:49.382Z,31.40
2023-01-30T04:06:17.580Z,22.98
2023-01-30T04:08:46.062Z,33.35
2023-01-30T04:11:26.914Z,33.30
2023-01-30T04:13:54.530Z,38.17
2023-01-30T04:16:26.721Z,33.08
2023-01-30T04:19:17.038Z,37.75
2023-01-30T04:21:47.802Z,32.30
2023-01-30T04:24:16.113Z,32.22
2023-01-30T04:26:43.777Z,34.70
2023-01-30T04:29:12.714Z,29.60
2023-01-30T04:31:41.159Z,23.23
2023-01-30T04:34:21.941Z,21.92
2023-01-30T04:36:50.185Z,25.27
2023-01-30T04:39:19.417Z,27.92
2023-01-30T04:41:48.271Z,28.07
2023-01-30T04:44:16.785Z,28.05
2023-01-30T04:47:00.844Z,22.00
2023-01-30T04:49:29.666Z,24.60
2023-01-30T04:54:27.236Z,26.38
2023-01-30T04:56:55.424Z,28.75
2023-01-30T04:59:24.167Z,28.23
2023-01-30T05:02:18.774Z,28.83
2023-01-30T05:04:51.642Z,26.63
2023-01-30T05:07:19.394Z,29.40
2023-01-30T05:09:46.640Z,34.22
2023-01-30T05:12:14.986Z,31.17
2023-01-30T05:14:42.747Z,23.23
2023-01-30T05:17:11.938Z,27.45
2023-01-30T05:19:39.333Z,30.63
2023-01-30T05:22:06.871Z,24.88
2023-01-30T05:24:35.136Z,28.45
2023-01-30T05:27:02.762Z,24.67
2023-01-30T05:29:30.954Z,31.92
2023-01-30T05:31:58.705Z,27.55
2023-01-30T05:34:27.037Z,22.45
2023-01-30T05:36:54.308Z,31.08
2023-01-30T05:39:21.795Z,25.38
2023-01-30T05:41:49.192Z,35.72
2023-01-30T05:44:16.888Z,43.55
2023-01-30T05:46:45.542Z,34.97
2023-01-30T05:49:13.283Z,31.15
2023-01-30T05:51:41.859Z,34.38
2023-01-30T05:54:09.239Z,22.92
2023-01-30T05:56:37.673Z,32.65
2023-01-30T05:59:05.038Z,30.33
2023-01-30T06:01:33.323Z,36.97
2023-01-30T06:04:00.797Z,44.28
2023-01-30T06:06:28.717Z,31.30
2023-01-30T06:08:57.078Z,35.20
2023-01-30T06:11:25.100Z,29.40
2023-01-30T06:13:52.568Z,30.08
2023-01-30T06:16:21.142Z,27.98
2023-01-30T06:18:48.796Z,24.65
2023-01-30T06:21:17.269Z,15.82
2023-01-30T06:23:44.906Z,25.30
2023-01-30T06:26:13.332Z,29.10
2023-01-30T06:28:43.434Z,27.88
2023-01-30T06:31:11.937Z,29.33
2023-01-30T06:33:39.563Z,30.80
2023-01-30T06:36:07.233Z,31.83
2023-01-30T06:38:35.116Z,45.67
2023-01-30T06:41:02.698Z,45.03
2023-01-30T06:43:31.242Z,39.70
2023-01-30T06:46:04.520Z,41.13
2023-01-30T06:48:33.057Z,34.47
2023-01-30T06:51:00.410Z,33.90
2023-01-30T06:53:30.719Z,41.95
2023-01-30T06:55:59.826Z,30.30
2023-01-30T06:58:28.013Z,28.45
2023-01-30T07:00:57.437Z,37.88
2023-01-30T07:03:25.008Z,38.03
2023-01-30T07:05:52.779Z,32.00
2023-01-30T07:08:21.742Z,38.50
2023-01-30T07:10:51.783Z,31.70
2023-01-30T07:13:19.482Z,33.97
2023-01-30T07:15:47.406Z,38.25
2023-01-30T07:18:15.510Z,58.42
2023-01-30T07:20:46.671Z,37.63
2023-01-30T07:23:15.451Z,42.13
2023-01-30T07:25:42.876Z,46.05
2023-01-30T07:28:11.032Z,37.92
2023-01-30T07:30:42.228Z,71.47
2023-01-30T07:33:10.527Z,129.63
2023-01-30T07:35:38.917Z,75.07
2023-01-30T07:38:06.796Z,69.82
2023-01-30T07:40:34.611Z,53.28
2023-01-30T07:43:07.590Z,46.10
2023-01-30T07:45:46.941Z,75.55
2023-01-30T07:48:17.968Z,124.97
2023-01-30T07:50:46.315Z,105.90
2023-01-30T07:53:16.626Z,86.95
2023-01-30T07:55:44.553Z,72.00
2023-01-30T07:58:15.314Z,63.22
2023-01-30T08:00:49.581Z,58.63
2023-01-30T08:03:17.819Z,43.42
2023-01-30T08:05:47.248Z,56.33
2023-01-30T08:08:15.083Z,71.63
2023-01-30T08:10:43.598Z,57.13
2023-01-30T08:13:11.915Z,105.70
2023-01-30T08:15:41.848Z,77.78
2023-01-30T08:18:10.653Z,65.65
2023-01-30T08:20:38.121Z,62.58
2023-01-30T08:23:06.297Z,49.65
2023-01-30T08:25:35.559Z,54.58
2023-01-30T08:28:11.502Z,62.45
2023-01-30T08:30:46.427Z,61.55
2023-01-30T08:33:15.055Z,58.53
2023-01-30T08:35:42.563Z,69.53
2023-01-30T08:38:09.879Z,90.00
2023-01-30T08:40:39.140Z,75.32
2023-01-30T08:43:07.070Z,62.90
2023-01-30T08:45:38.656Z,55.05
2023-01-30T08:48:08.168Z,42.67
2023-01-30T08:50:37.182Z,49.42
2023-01-30T08:53:09.473Z,52.85
2023-01-30T08:55:36.926Z,42.53
2023-01-30T08:58:04.362Z,53.60
2023-01-30T09:00:35.285Z,37.67
2023-01-30T09:03:03.151Z,34.97
2023-01-30T09:05:30.826Z,38.13
2023-01-30T09:07:58.127Z,37.55
2023-01-30T09:10:25.439Z,39.17
2023-01-30T09:12:54.315Z,45.28
2023-01-30T09:15:21.726Z,83.63
2023-01-30T09:17:49.374Z,69.72
2023-01-30T09:20:17.603Z,36.13
2023-01-30T09:22:45.231Z,37.33
2023-01-30T09:25:13.029Z,56.80
2023-01-30T09:27:41.800Z,146.02
2023-01-30T09:30:12.559Z,84.85
2023-01-30T09:32:40.112Z,38.55
2023-01-30T09:35:09.401Z,53.47
2023-01-30T09:37:38.331Z,35.67
2023-01-30T09:40:08.609Z,50.35
2023-01-30T09:42:38.155Z,33.47
2023-01-30T09:45:32.385Z,31.05
2023-01-30T09:48:18.306Z,28.50
2023-01-30T09:51:04.140Z,35.08
2023-01-30T09:54:00.992Z,35.13
2023-01-30T09:56:28.702Z,30.55
2023-01-30T09:58:59.453Z,29.58
2023-01-30T10:01:52.089Z,24.98
2023-01-30T10:04:39.057Z,24.52
2023-01-30T10:07:19.562Z,28.13
2023-01-30T10:09:56.108Z,19.35
2023-01-30T10:12:41.903Z,20.55
2023-01-30T10:15:35.267Z,23.67
2023-01-30T10:18:15.043Z,21.35
2023-01-30T10:21:15.743Z,17.55
2023-01-30T10:26:31.872Z,17.67
2023-01-30T10:29:23.321Z,21.48
2023-01-30T10:32:00.235Z,21.65
2023-01-30T10:34:34.870Z,24.05
2023-01-30T10:37:22.260Z,28.35
2023-01-30T10:39:56.929Z,28.25
2023-01-30T10:42:38.875Z,24.60
2023-01-30T10:45:17.476Z,22.10
2023-01-30T10:48:10.651Z,25.63
2023-01-30T10:50:56.501Z,27.23
2023-01-30T10:53:35.333Z,25.80
2023-01-30T10:56:11.590Z,31.85
2023-01-30T10:58:54.669Z,26.98
2023-01-30T11:01:38.654Z,31.75
2023-01-30T11:04:24.586Z,27.50
2023-01-30T11:06:53.954Z,60.63
2023-01-30T11:09:22.710Z,36.22
2023-01-30T11:14:20.581Z,32.22
2023-01-30T11:16:51.195Z,34.08
2023-01-30T11:19:22.812Z,40.67
2023-01-30T11:21:53.468Z,48.40
2023-01-30T11:26:53.951Z,45.38
2023-01-30T11:29:35.559Z,34.70
2023-01-30T11:32:30.051Z,31.73
2023-01-30T11:35:09.939Z,29.08
2023-01-30T11:37:39.727Z,28.38
2023-01-30T11:40:21.328Z,32.38
2023-01-30T11:42:51.615Z,33.15
2023-01-30T11:45:21.266Z,35.78
2023-01-30T11:47:59.274Z,37.33
2023-01-30T11:50:43.519Z,40.33
2023-01-30T11:53:25.344Z,50.65
2023-01-30T11:56:05.158Z,30.77
2023-01-30T11:58:36.917Z,33.72
2023-01-30T12:01:05.526Z,82.45
2023-01-30T12:03:34.634Z,35.80
2023-01-30T12:06:03.310Z,29.42
2023-01-30T12:08:42.752Z,28.92
2023-01-30T12:11:45.468Z,31.08
2023-01-30T12:14:26.327Z,36.00
2023-01-30T12:17:21.728Z,32.92
2023-01-30T12:20:06.789Z,44.40
2023-01-30T12:23:12.954Z,32.90
2023-01-30T12:26:11.856Z,31.98
2023-01-30T12:28:57.156Z,32.00
2023-01-30T12:31:26.548Z,35.85
2023-01-30T12:33:55.609Z,35.75
2023-01-30T12:36:28.422Z,42.25
2023-01-30T12:39:30.617Z,50.03
2023-01-30T12:42:31.572Z,32.42
2023-01-30T12:44:59.405Z,30.75
2023-01-30T12:47:33.312Z,44.55
2023-01-30T12:50:14.194Z,36.33
2023-01-30T12:52:57.025Z,35.60
2023-01-30T12:55:42.357Z,34.72
2023-01-30T12:58:20.514Z,38.92
2023-01-30T13:01:16.250Z,35.15
2023-01-30T13:03:59.680Z,39.75
2023-01-30T13:06:52.813Z,35.38
2023-01-30T13:09:44.808Z,38.15
2023-01-30T13:12:28.081Z,41.83
2023-01-30T13:15:18.894Z,40.95
2023-01-30T13:18:15.937Z,38.97
2023-01-30T13:21:10.854Z,36.80
2023-01-30T13:24:09.196Z,38.75
2023-01-30T13:26:38.171Z,38.78
2023-01-30T13:29:14.990Z,32.67
2023-01-30T13:31:52.395Z,39.13
2023-01-30T13:34:35.154Z,35.92
2023-01-30T13:37:13.573Z,34.63
2023-01-30T13:39:44.585Z,30.73
2023-01-30T13:42:33.219Z,38.38
2023-01-30T13:45:01.666Z,35.92
2023-01-30T13:47:50.418Z,36.92
2023-01-30T13:50:30.904Z,38.55
2023-01-30T13:55:46.843Z,32.30
2023-01-30T13:58:48.856Z,33.03
2023-01-30T14:01:16.497Z,34.15
2023-01-30T14:03:44.910Z,34.22
2023-01-30T14:06:37.322Z,37.05
2023-01-30T14:09:26.644Z,39.15
2023-01-30T14:12:00.891Z,41.97
2023-01-30T14:14:41.498Z,42.92
2023-01-30T14:17:15.317Z,36.63
2023-01-30T14:19:59.246Z,39.00
2023-01-30T14:22:47.998Z,37.35
2023-01-30T14:25:30.693Z,36.00
2023-01-30T14:28:19.793Z,41.10
2023-01-30T14:31:00.185Z,35.75
2023-01-30T14:33:27.627Z,35.08
2023-01-30T14:36:01.760Z,27.58
2023-01-30T14:38:34.168Z,38.60
2023-01-30T14:41:05.804Z,26.95
2023-01-30T14:43:53.084Z,34.25
2023-01-30T14:46:20.832Z,35.75
2023-01-30T14:48:52.098Z,30.02
2023-01-30T14:51:38.154Z,34.38
2023-01-30T14:54:18.690Z,29.98
2023-01-30T14:59:41.563Z,37.08
2023-01-30T15:04:47.931Z,56.05
2023-01-30T15:07:19.401Z,246.80
2023-01-30T15:10:05.198Z,154.60
2023-01-30T15:12:38.514Z,95.57
2023-01-30T15:15:35.705Z,66.03
2023-01-30T15:18:13.246Z,56.47
2023-01-30T15:21:06.109Z,51.35
2023-01-30T15:24:04.692Z,43.00
2023-01-30T15:26:43.968Z,47.83
2023-01-30T15:29:30.023Z,41.08
2023-01-30T15:32:02.777Z,42.13
2023-01-30T15:34:34.404Z,46.65
2023-01-30T15:37:01.768Z,40.85
2023-01-30T15:39:29.398Z,35.65
2023-01-30T15:42:07.273Z,39.80
2023-01-30T15:45:03.823Z,36.35
2023-01-30T15:47:58.959Z,37.35
2023-01-30T15:50:26.439Z,36.78
2023-01-30T15:52:56.627Z,37.47
2023-01-30T15:55:37.996Z,38.80
2023-01-30T15:58:13.490Z,38.08
2023-01-30T16:00:53.850Z,29.95
2023-01-30T16:03:31.573Z,38.05
2023-01-30T16:05:59.740Z,34.80
2023-01-30T16:08:33.113Z,40.10
2023-01-30T16:11:01.642Z,50.10
2023-01-30T16:13:30.071Z,49.88
2023-01-30T16:16:18.979Z,53.00
2023-01-30T16:18:52.862Z,73.15
2023-01-30T16:21:27.376Z,71.75
2023-01-30T16:24:06.970Z,45.90
2023-01-30T16:26:37.018Z,40.80
2023-01-30T16:29:14.481Z,42.33
2023-01-30T16:31:47.867Z,39.60
2023-01-30T16:34:30.440Z,41.30
2023-01-30T16:37:08.636Z,34.58
2023-01-30T16:39:39.763Z,33.72
2023-01-30T16:42:28.769Z,35.55
2023-01-30T16:45:12.329Z,71.68
2023-01-30T16:47:41.034Z,54.08
2023-01-30T16:50:28.564Z,33.67
2023-01-30T16:52:57.245Z,39.85
2023-01-30T16:55:28.455Z,34.40
2023-01-30T17:00:42.754Z,39.05
2023-01-30T17:04:00.709Z,37.53
2023-01-30T17:06:53.422Z,41.67
2023-01-30T17:09:42.821Z,42.42
2023-01-30T17:12:31.311Z,38.65
2023-01-30T17:15:14.764Z,46.22
2023-01-30T17:17:42.645Z,43.75
2023-01-30T17:20:11.739Z,45.10
2023-01-30T17:22:42.043Z,45.53
2023-01-30T17:25:30.540Z,39.92
2023-01-30T17:27:59.490Z,35.75
2023-01-30T17:30:32.333Z,39.58
2023-01-30T17:33:01.041Z,46.83
2023-01-30T17:35:28.389Z,49.53
2023-01-30T17:38:04.856Z,61.17
2023-01-30T17:41:02.614Z,45.70
2023-01-30T17:43:30.356Z,53.20
2023-01-30T17:45:58.603Z,46.35
2023-01-30T17:48:26.592Z,62.53
2023-01-30T17:50:54.016Z,41.78
2023-01-30T17:53:21.425Z,43.08
2023-01-30T17:55:48.849Z,49.40
2023-01-30T17:58:21.491Z,46.30
2023-01-30T18:00:51.544Z,40.60
2023-01-30T18:03:20.825Z,61.65
2023-01-30T18:05:49.168Z,49.72
2023-01-30T18:08:16.825Z,45.40
2023-01-30T18:10:44.282Z,57.03
2023-01-30T18:13:15.245Z,44.90
2023-01-30T18:15:48.859Z,39.72
2023-01-30T18:18:19.328Z,43.50
2023-01-30T18:20:48.407Z,37.92
2023-01-30T18:23:18.520Z,43.72
2023-01-30T18:25:46.876Z,58.58
2023-01-30T18:28:14.593Z,44.60
2023-01-30T18:30:45.261Z,51.00
2023-01-30T18:33:13.845Z,48.50
2023-01-30T18:35:41.235Z,56.65
2023-01-30T18:38:09.397Z,49.88
2023-01-30T18:40:40.156Z,47.17
2023-01-30T18:43:07.489Z,57.25
2023-01-30T18:45:39.185Z,49.70
2023-01-30T18:48:06.759Z,52.60
2023-01-30T18:50:34.085Z,59.00
2023-01-30T18:53:02.102Z,38.42
2023-01-30T18:55:29.496Z,43.17
2023-01-30T18:58:00.468Z,38.22
2023-01-30T19:00:28.114Z,37.60
2023-01-30T19:02:56.573Z,52.58
2023-01-30T19:05:24.320Z,60.78
2023-01-30T19:07:51.675Z,60.97
2023-01-30T19:10:20.773Z,43.97
2023-01-30T19:13:06.826Z,44.65
2023-01-30T19:15:38.230Z,103.38
2023-01-30T19:18:06.768Z,333.58
2023-01-30T19:20:35.588Z,201.57
2023-01-30T19:23:03.032Z,200.25
2023-01-30T19:25:30.432Z,53.33
2023-01-30T19:27:58.182Z,46.17
2023-01-30T19:30:25.802Z,50.05
2023-01-30T19:32:54.447Z,65.57
2023-01-30T19:35:23.649Z,50.63
2023-01-30T19:37:55.491Z,57.97
2023-01-30T19:40:23.123Z,59.80
2023-01-30T19:42:54.637Z,52.88
2023-01-30T19:45:28.388Z,44.78
2023-01-30T19:47:56.832Z,36.85
2023-01-30T19:50:24.520Z,48.83
2023-01-30T19:52:54.718Z,44.55
2023-01-30T19:55:23.386Z,36.53
2023-01-30T19:57:51.399Z,42.63
2023-01-30T20:00:20.921Z,40.53
2023-01-30T20:02:50.151Z,50.47
2023-01-30T20:05:20.093Z,42.75
2023-01-30T20:07:47.435Z,49.43
2023-01-30T20:10:15.000Z,61.58
2023-01-30T20:12:44.085Z,42.13
2023-01-30T20:15:11.997Z,33.30
2023-01-30T20:17:41.192Z,30.02
2023-01-30T20:20:10.787Z,40.03
2023-01-30T20:22:39.732Z,37.75
2023-01-30T20:25:09.158Z,35.72
2023-01-30T20:27:36.866Z,39.25
2023-01-30T20:30:05.847Z,38.15
2023-01-30T20:32:35.894Z,35.05
2023-01-30T20:35:05.477Z,47.00
2023-01-30T20:37:35.701Z,40.35
2023-01-30T20:40:03.837Z,35.63
2023-01-30T20:42:32.080Z,32.28
2023-01-30T20:45:00.205Z,36.00
2023-01-30T20:47:28.612Z,32.03
2023-01-30T20:49:56.005Z,40.38
2023-01-30T20:52:23.979Z,34.95
2023-01-30T20:54:52.261Z,27.52
2023-01-30T20:57:19.711Z,29.98
2023-01-30T20:59:47.403Z,27.35
2023-01-30T21:02:17.822Z,31.95
2023-01-30T21:04:45.876Z,26.15
2023-01-30T21:07:13.352Z,38.17
2023-01-30T21:09:47.826Z,40.47
2023-01-30T21:12:15.399Z,40.95
2023-01-30T21:14:42.914Z,34.60
2023-01-30T21:17:10.303Z,37.58
2023-01-30T21:19:38.417Z,30.13
2023-01-30T21:22:12.096Z,43.63
2023-01-30T21:24:39.771Z,34.45
2023-01-30T21:27:08.305Z,34.25
2023-01-30T21:29:36.841Z,38.03
2023-01-30T21:32:06.413Z,35.55
2023-01-30T21:34:35.869Z,32.58
2023-01-30T21:37:21.681Z,42.00
2023-01-30T21:40:08.183Z,38.58
2023-01-30T21:42:54.611Z,36.45
2023-01-30T21:45:23.337Z,32.33
2023-01-30T21:47:52.283Z,36.55
2023-01-30T21:50:21.465Z,43.72
2023-01-30T21:52:48.880Z,37.53
2023-01-30T21:55:17.702Z,41.53
2023-01-30T21:57:45.362Z,38.30
2023-01-30T22:00:13.461Z,36.80
2023-01-30T22:02:41.478Z,32.20
2023-01-30T22:05:10.159Z,32.03
2023-01-30T22:07:37.926Z,31.73
2023-01-30T22:10:05.827Z,38.72
2023-01-30T22:12:33.304Z,37.22
2023-01-30T22:15:01.994Z,47.28
2023-01-30T22:17:29.424Z,43.33
2023-01-30T22:19:58.157Z,37.70
2023-01-30T22:22:26.016Z,37.22
2023-01-30T22:24:53.954Z,45.22
2023-01-30T22:27:21.565Z,40.15
2023-01-30T22:29:49.722Z,52.47
2023-01-30T22:32:17.135Z,50.92
2023-01-30T22:34:45.328Z,48.95
2023-01-30T22:37:13.030Z,56.13
2023-01-30T22:39:41.721Z,42.03
2023-01-30T22:42:09.543Z,38.80
2023-01-30T22:44:38.194Z,38.05
2023-01-30T22:47:06.199Z,30.52
2023-01-30T22:49:33.505Z,38.00
2023-01-30T22:52:01.876Z,33.05
2023-01-30T22:54:29.391Z,30.02
2023-01-30T22:56:57.064Z,37.20
2023-01-30T22:59:24.672Z,28.80
2023-01-30T23:01:52.103Z,36.67
2023-01-30T23:04:24.303Z,35.97
2023-01-30T23:06:52.709Z,26.73
2023-01-30T23:09:23.410Z,36.72
2023-01-30T23:14:39.312Z,33.75
2023-01-30T23:17:26.668Z,39.33
2023-01-30T23:19:55.404Z,35.17
2023-01-30T23:22:23.247Z,31.58
2023-01-30T23:24:51.517Z,40.20
2023-01-30T23:27:20.250Z,36.08
2023-01-30T23:29:47.662Z,31.77
2023-01-30T23:32:15.399Z,41.53
2023-01-30T23:34:42.854Z,32.85
2023-01-30T23:37:10.255Z,38.10
2023-01-30T23:39:38.929Z,35.15
2023-01-30T23:42:06.461Z,38.97
2023-01-30T23:44:34.004Z,32.40
2023-01-30T23:47:01.816Z,30.02
2023-01-30T23:49:29.714Z,41.45
2023-01-30T23:51:57.504Z,95.82
2023-01-30T23:54:25.628Z,113.43
2023-01-30T23:56:55.451Z,39.95
2023-01-30T23:59:22.782Z,33.47
